Time;durP1;ratioP1;P1;durP2;ratioP2;P2;SDS_P1;SDS_P2;PMS_P1;PMS_P2;Temp;Humidity;BMP_temperature;BMP_pressure;BME280_temperature;BME280_humidity;BME280_pressure;Samples;Min_cycle;Max_cycle;Signal;HPM_P1;HPM_P2
2022/04/10 00:01:00;;;;;;;10.35;2.92;;;;;;;;;;4987165;28;20051;-81
2022/04/10 00:03:26;;;;;;;10.07;1.80;;;;;;;;;;4995181;28;20059;-81
2022/04/10 00:05:53;;;;;;;7.45;2.33;;;;;;;;;;4994071;28;20908;-81
2022/04/10 00:08:20;;;;;;;10.35;2.28;;;;;;;;;;5000182;28;20090;-81
2022/04/10 00:10:47;;;;;;;7.35;2.33;;;;;;;;;;4996436;28;20074;-81
2022/04/10 00:13:13;;;;;;;8.10;2.10;;;;;;;;;;4996889;28;20884;-81
2022/04/10 00:15:39;;;;;;;10.38;2.25;;;;;;;;;;4994139;28;20071;-81
2022/04/10 00:18:06;;;;;;;11.40;2.00;;;;;;;;;;4979732;28;21189;-81
2022/04/10 00:20:32;;;;;;;10.80;2.53;;;;;;;;;;4989266;28;20178;-81
2022/04/10 00:22:58;;;;;;;9.43;2.20;;;;;;;;;;4995613;28;20090;-81
2022/04/10 00:25:25;;;;;;;9.73;2.65;;;;;;;;;;4980933;28;20046;-81
2022/04/10 00:27:51;;;;;;;10.05;2.15;;;;;;;;;;5014015;28;20051;-81
2022/04/10 00:30:17;;;;;;;6.95;1.92;;;;;;;;;;5012935;28;20058;-81
2022/04/10 00:32:44;;;;;;;7.90;2.17;;;;;;;;;;4979833;28;20058;-81
2022/04/10 00:35:11;;;;;;;9.90;2.40;;;;;;;;;;4980544;28;20039;-80
2022/04/10 00:37:38;;;;;;;8.57;1.65;;;;;;;;;;4994309;28;20093;-81
2022/04/10 00:40:05;;;;;;;9.75;2.10;;;;;;;;;;4992571;28;20082;-80
2022/04/10 00:42:32;;;;;;;12.52;2.10;;;;;;;;;;4988449;28;20067;-80
2022/04/10 00:44:58;;;;;;;5.43;2.20;;;;;;;;;;4980433;28;20174;-81
2022/04/10 00:47:25;;;;;;;6.85;1.80;;;;;;;;;;4997015;28;20055;-81
2022/04/10 00:49:51;;;;;;;9.18;2.38;;;;;;;;;;4983679;28;20070;-81
2022/04/10 00:52:18;;;;;;;10.95;2.40;;;;;;;;;;4998780;28;20070;-81
2022/04/10 00:54:45;;;;;;;6.80;2.25;;;;;;;;;;4977666;28;20047;-81
2022/04/10 00:57:12;;;;;;;11.85;2.40;;;;;;;;;;4992612;28;20118;-81
2022/04/10 00:59:39;;;;;;;7.70;2.10;;;;;;;;;;4997321;28;20050;-80
2022/04/10 01:02:06;;;;;;;5.53;2.03;;;;;;;;;;4985653;28;20137;-81
2022/04/10 01:04:37;;;;;;;5.38;1.60;;;;;;;;;;4989785;28;20062;-80
2022/04/10 01:07:04;;;;;;;8.85;2.05;;;;;;;;;;4990936;28;20145;-80
2022/04/10 01:09:31;;;;;;;6.93;2.08;;;;;;;;;;4981716;28;20071;-81
2022/04/10 01:11:58;;;;;;;7.45;1.95;;;;;;;;;;4996117;28;20138;-81
2022/04/10 01:14:24;;;;;;;10.88;2.53;;;;;;;;;;4979847;28;20069;-81
2022/04/10 01:16:51;;;;;;;8.63;2.17;;;;;;;;;;4997243;28;20119;-80
2022/04/10 01:19:19;;;;;;;10.25;2.58;;;;;;;;;;4981562;28;20679;-80
2022/04/10 01:21:46;;;;;;;11.05;2.80;;;;;;;;;;4980698;28;20043;-80
2022/04/10 01:24:13;;;;;;;11.52;2.47;;;;;;;;;;4997742;28;20076;-80
2022/04/10 01:26:41;;;;;;;6.75;2.03;;;;;;;;;;5007053;28;20045;-81
2022/04/10 01:29:08;;;;;;;8.13;2.65;;;;;;;;;;4986114;28;20759;-81
2022/04/10 01:31:36;;;;;;;12.20;2.40;;;;;;;;;;5002347;28;20105;-81
2022/04/10 01:34:05;;;;;;;12.02;2.80;;;;;;;;;;5002210;28;20043;-81
2022/04/10 01:36:31;;;;;;;9.95;2.38;;;;;;;;;;5002469;28;20453;-81
2022/04/10 01:38:59;;;;;;;9.63;2.78;;;;;;;;;;5002382;28;20023;-80
2022/04/10 01:41:26;;;;;;;13.40;2.50;;;;;;;;;;5000766;28;20054;-81
2022/04/10 01:43:54;;;;;;;16.15;2.80;;;;;;;;;;4987348;28;20141;-80
2022/04/10 01:46:22;;;;;;;10.57;2.50;;;;;;;;;;4992760;28;20051;-80
2022/04/10 01:48:49;;;;;;;10.55;2.63;;;;;;;;;;5000512;28;20050;-80
2022/04/10 01:51:15;;;;;;;8.13;2.80;;;;;;;;;;4984287;28;20070;-80
2022/04/10 01:53:42;;;;;;;10.18;2.63;;;;;;;;;;4985109;28;20137;-80
2022/04/10 01:56:08;;;;;;;11.82;2.92;;;;;;;;;;4992689;28;20118;-80
2022/04/10 01:58:36;;;;;;;9.98;2.63;;;;;;;;;;5003460;28;20043;-80
2022/04/10 02:01:04;;;;;;;10.48;2.80;;;;;;;;;;4983155;28;20110;-80
2022/04/10 02:03:30;;;;;;;10.57;2.63;;;;;;;;;;4991421;28;20042;-81
2022/04/10 02:05:57;;;;;;;12.60;2.95;;;;;;;;;;4979004;28;20063;-80
2022/04/10 02:08:24;;;;;;;10.20;2.60;;;;;;;;;;4984688;28;20059;-80
2022/04/10 02:10:50;;;;;;;7.65;2.45;;;;;;;;;;4997142;28;20110;-80
2022/04/10 02:13:19;;;;;;;11.65;2.83;;;;;;;;;;4982479;28;20054;-80
2022/04/10 02:15:45;;;;;;;17.30;3.38;;;;;;;;;;4999175;28;21011;-80
2022/04/10 02:18:12;;;;;;;11.35;3.22;;;;;;;;;;4995453;28;20269;-80
2022/04/10 02:20:38;;;;;;;11.77;2.95;;;;;;;;;;4983491;28;20075;-80
2022/04/10 02:23:05;;;;;;;7.95;2.42;;;;;;;;;;5008044;28;20078;-81
2022/04/10 02:25:31;;;;;;;14.35;3.40;;;;;;;;;;4983582;28;20928;-81
2022/04/10 02:27:57;;;;;;;10.48;2.60;;;;;;;;;;4982922;28;20055;-81
2022/04/10 02:30:24;;;;;;;12.02;3.15;;;;;;;;;;4996780;28;20066;-81
2022/04/10 02:32:50;;;;;;;9.63;2.67;;;;;;;;;;4979931;28;20047;-81
2022/04/10 02:35:16;;;;;;;11.77;3.00;;;;;;;;;;4983203;28;20081;-80
2022/04/10 02:37:46;;;;;;;10.07;2.63;;;;;;;;;;4983343;28;20505;-81
2022/04/10 02:40:18;;;;;;;16.02;2.70;;;;;;;;;;4995842;28;20112;-81
2022/04/10 02:42:44;;;;;;;10.52;2.53;;;;;;;;;;4982353;28;20086;-81
2022/04/10 02:45:11;;;;;;;12.80;2.80;;;;;;;;;;5000379;28;20051;-81
2022/04/10 02:47:37;;;;;;;11.15;2.55;;;;;;;;;;4983763;28;20059;-81
2022/04/10 02:50:05;;;;;;;10.93;2.78;;;;;;;;;;4990819;28;20043;-81
2022/04/10 02:52:31;;;;;;;7.55;2.33;;;;;;;;;;4995741;28;20039;-80
2022/04/10 02:54:58;;;;;;;11.02;2.70;;;;;;;;;;4991648;28;20043;-81
2022/04/10 02:57:24;;;;;;;11.25;3.10;;;;;;;;;;5016044;28;20112;-81
2022/04/10 02:59:50;;;;;;;11.40;3.20;;;;;;;;;;4982798;28;20070;-81
2022/04/10 03:02:17;;;;;;;12.32;2.63;;;;;;;;;;5000344;28;20075;-80
2022/04/10 03:04:43;;;;;;;9.23;2.40;;;;;;;;;;4996875;28;20863;-81
2022/04/10 03:07:09;;;;;;;7.15;2.40;;;;;;;;;;5000375;28;20067;-81
2022/04/10 03:09:36;;;;;;;7.22;2.30;;;;;;;;;;4997153;28;20190;-81
2022/04/10 03:12:04;;;;;;;10.73;2.75;;;;;;;;;;4983332;28;20046;-81
2022/04/10 03:14:31;;;;;;;8.13;2.50;;;;;;;;;;4983561;28;20054;-80
2022/04/10 03:16:57;;;;;;;13.25;2.80;;;;;;;;;;4986270;28;20134;-81
2022/04/10 03:19:23;;;;;;;11.60;2.80;;;;;;;;;;4996526;28;20114;-81
2022/04/10 03:21:50;;;;;;;13.05;3.00;;;;;;;;;;4985144;28;20101;-81
2022/04/10 03:24:16;;;;;;;10.77;2.65;;;;;;;;;;4972899;28;20094;-81
2022/04/10 03:26:42;;;;;;;10.73;2.90;;;;;;;;;;4985785;28;20058;-81
2022/04/10 03:29:09;;;;;;;10.40;2.35;;;;;;;;;;4984744;28;20132;-81
2022/04/10 03:31:36;;;;;;;10.95;2.47;;;;;;;;;;4996701;28;20043;-81
2022/04/10 03:34:02;;;;;;;15.52;3.15;;;;;;;;;;4996967;28;20063;-81
2022/04/10 03:36:28;;;;;;;11.52;2.78;;;;;;;;;;4999321;28;20070;-81
2022/04/10 03:38:55;;;;;;;8.13;2.80;;;;;;;;;;5009944;28;20094;-81
2022/04/10 03:41:21;;;;;;;11.90;2.78;;;;;;;;;;4984746;28;20252;-81
2022/04/10 03:43:47;;;;;;;11.40;2.78;;;;;;;;;;4982770;28;20055;-82
2022/04/10 03:46:14;;;;;;;10.57;2.67;;;;;;;;;;4984638;28;20110;-81
2022/04/10 03:48:40;;;;;;;11.02;2.60;;;;;;;;;;5002682;28;20106;-81
2022/04/10 03:51:07;;;;;;;10.25;2.60;;;;;;;;;;4985126;28;20204;-81
2022/04/10 03:53:34;;;;;;;12.60;2.78;;;;;;;;;;4983147;28;20061;-81
2022/04/10 03:56:01;;;;;;;14.27;2.90;;;;;;;;;;4984617;28;20125;-81
2022/04/10 03:58:27;;;;;;;14.48;3.38;;;;;;;;;;4984260;28;20058;-81
2022/04/10 04:00:54;;;;;;;13.02;3.38;;;;;;;;;;5015254;28;20074;-81
2022/04/10 04:03:21;;;;;;;9.05;2.75;;;;;;;;;;4999406;28;20059;-82
2022/04/10 04:05:47;;;;;;;9.90;3.58;;;;;;;;;;4999739;28;20071;-81
2022/04/10 04:08:15;;;;;;;12.88;3.40;;;;;;;;;;4997551;28;20055;-81
2022/04/10 04:10:41;;;;;;;9.02;2.78;;;;;;;;;;4983227;28;20063;-81
2022/04/10 04:13:07;;;;;;;14.27;3.03;;;;;;;;;;4999441;28;20071;-82
2022/04/10 04:15:34;;;;;;;11.88;3.13;;;;;;;;;;4995863;28;20070;-81
2022/04/10 04:18:01;;;;;;;15.15;3.03;;;;;;;;;;4981934;28;20043;-81
2022/04/10 04:20:27;;;;;;;13.90;3.08;;;;;;;;;;5013307;28;20099;-81
2022/04/10 04:22:56;;;;;;;9.38;2.67;;;;;;;;;;4981373;28;20082;-82
2022/04/10 04:25:23;;;;;;;9.75;2.85;;;;;;;;;;5010849;28;20184;-82
2022/04/10 04:27:49;;;;;;;11.10;2.58;;;;;;;;;;4997422;28;20083;-81
2022/04/10 04:30:15;;;;;;;10.25;2.83;;;;;;;;;;4983619;28;20050;-82
2022/04/10 04:32:42;;;;;;;9.23;2.90;;;;;;;;;;5001344;28;20105;-82
2022/04/10 04:35:10;;;;;;;11.60;2.72;;;;;;;;;;4977620;28;20055;-84
2022/04/10 04:37:40;;;;;;;9.57;3.00;;;;;;;;;;4980597;28;20438;-85
2022/04/10 04:40:10;;;;;;;11.83;3.47;;;;;;;;;;4994081;28;20055;-84
2022/04/10 04:42:36;;;;;;;11.43;3.25;;;;;;;;;;4981185;28;20765;-84
2022/04/10 04:45:04;;;;;;;9.68;2.88;;;;;;;;;;4999351;28;20094;-84
2022/04/10 04:47:30;;;;;;;10.57;2.80;;;;;;;;;;4991469;28;20438;-83
2022/04/10 04:49:57;;;;;;;9.85;2.67;;;;;;;;;;4996945;28;20729;-83
2022/04/10 04:52:23;;;;;;;11.43;2.83;;;;;;;;;;4968943;28;20503;-86
2022/04/10 04:54:49;;;;;;;15.00;3.20;;;;;;;;;;4977777;28;20051;-84
2022/04/10 04:57:16;;;;;;;12.75;3.08;;;;;;;;;;4989198;28;20055;-82
2022/04/10 04:59:42;;;;;;;10.32;3.30;;;;;;;;;;4987726;28;20429;-81
2022/04/10 05:02:08;;;;;;;10.10;3.15;;;;;;;;;;4977694;28;20137;-83
2022/04/10 05:04:35;;;;;;;9.63;2.70;;;;;;;;;;4987096;28;20050;-82
2022/04/10 05:07:02;;;;;;;9.82;2.85;;;;;;;;;;4982762;28;20065;-82
2022/04/10 05:09:28;;;;;;;10.25;2.63;;;;;;;;;;4988561;28;21009;-84
2022/04/10 05:11:54;;;;;;;8.25;2.92;;;;;;;;;;4991980;28;20070;-82
2022/04/10 05:14:24;;;;;;;12.68;3.40;;;;;;;;;;4991985;28;20086;-81
2022/04/10 05:16:50;;;;;;;14.38;3.33;;;;;;;;;;4991787;28;20496;-84
2022/04/10 05:19:16;;;;;;;7.90;3.00;;;;;;;;;;4974073;28;20082;-84
2022/04/10 05:21:43;;;;;;;10.38;2.63;;;;;;;;;;5002891;28;20177;-85
2022/04/10 05:24:09;;;;;;;9.77;2.72;;;;;;;;;;4991243;28;20061;-82
2022/04/10 05:26:35;;;;;;;14.95;2.90;;;;;;;;;;4973620;28;20055;-82
2022/04/10 05:29:02;;;;;;;9.32;2.70;;;;;;;;;;4986710;28;20137;-82
2022/04/10 05:31:28;;;;;;;9.70;3.30;;;;;;;;;;4984590;28;20126;-82
2022/04/10 05:33:55;;;;;;;9.50;3.10;;;;;;;;;;4975083;28;20161;-82
2022/04/10 05:36:21;;;;;;;10.20;3.60;;;;;;;;;;4978410;28;20138;-84
2022/04/10 05:38:47;;;;;;;10.98;3.67;;;;;;;;;;4991220;28;20652;-82
2022/04/10 05:41:14;;;;;;;10.55;2.65;;;;;;;;;;4992651;28;20073;-82
2022/04/10 05:43:40;;;;;;;10.13;2.53;;;;;;;;;;4972434;28;20057;-82
2022/04/10 05:46:06;;;;;;;10.20;2.53;;;;;;;;;;4985084;28;20039;-82
2022/04/10 05:48:33;;;;;;;9.18;3.00;;;;;;;;;;4985469;28;20055;-82
2022/04/10 05:50:59;;;;;;;12.60;2.92;;;;;;;;;;4992506;28;20086;-82
2022/04/10 05:53:25;;;;;;;10.07;2.83;;;;;;;;;;4975607;28;20544;-82
2022/04/10 05:55:52;;;;;;;9.57;2.90;;;;;;;;;;4975094;28;20129;-83
2022/04/10 05:58:18;;;;;;;14.95;2.65;;;;;;;;;;4985377;28;20086;-83
2022/04/10 06:00:45;;;;;;;10.32;3.30;;;;;;;;;;4977573;28;20552;-83
2022/04/10 06:03:12;;;;;;;13.82;3.20;;;;;;;;;;4994170;28;20497;-82
2022/04/10 06:05:39;;;;;;;13.77;3.28;;;;;;;;;;4964131;28;20067;-84
2022/04/10 06:08:05;;;;;;;10.65;2.80;;;;;;;;;;5006663;28;20900;-83
2022/04/10 06:10:31;;;;;;;8.85;2.95;;;;;;;;;;4975992;28;20055;-83
2022/04/10 06:13:10;;;;;;;14.32;3.40;;;;;;;;;;4975525;28;20101;-82
2022/04/10 06:15:42;;;;;;;10.90;2.97;;;;;;;;;;4976503;28;20109;-82
2022/04/10 06:18:08;;;;;;;17.63;4.47;;;;;;;;;;4991271;28;20058;-81
2022/04/10 06:20:34;;;;;;;10.85;2.85;;;;;;;;;;4973140;28;20126;-82
2022/04/10 06:23:01;;;;;;;7.57;2.40;;;;;;;;;;4975177;28;20051;-82
2022/04/10 06:25:27;;;;;;;11.35;2.22;;;;;;;;;;4974416;28;20502;-82
2022/04/10 06:27:55;;;;;;;8.13;2.40;;;;;;;;;;4990345;28;20489;-81
2022/04/10 06:30:22;;;;;;;8.45;2.40;;;;;;;;;;4993127;28;20538;-81
2022/04/10 06:32:48;;;;;;;6.65;2.20;;;;;;;;;;4994916;28;20720;-81
2022/04/10 06:35:15;;;;;;;10.02;2.42;;;;;;;;;;4971253;28;20625;-81
2022/04/10 06:37:44;;;;;;;7.30;2.10;;;;;;;;;;4994198;28;20054;-81
2022/04/10 06:40:11;;;;;;;6.47;2.00;;;;;;;;;;5001940;28;20075;-81
2022/04/10 06:42:38;;;;;;;9.70;2.38;;;;;;;;;;4985468;28;20062;-81
2022/04/10 06:47:34;;;;;;;9.35;1.88;;;;;;;;;;4982073;28;20058;-80
2022/04/10 06:50:02;;;;;;;7.97;2.40;;;;;;;;;;4970589;28;20078;-81
2022/04/10 06:52:33;;;;;;;9.40;2.05;;;;;;;;;;4985109;28;20078;-81
2022/04/10 06:55:00;;;;;;;11.07;2.00;;;;;;;;;;4967793;28;20052;-82
2022/04/10 06:57:26;;;;;;;6.50;2.10;;;;;;;;;;4981678;28;20063;-82
2022/04/10 06:59:59;;;;;;;4.97;2.28;;;;;;;;;;4966504;28;20059;-82
2022/04/10 07:02:27;;;;;;;5.70;1.95;;;;;;;;;;4973073;28;20146;-83
2022/04/10 07:04:54;;;;;;;6.65;2.13;;;;;;;;;;4954750;28;20051;-81
2022/04/10 07:07:20;;;;;;;6.60;1.85;;;;;;;;;;4980615;28;20063;-81
2022/04/10 07:09:46;;;;;;;6.32;1.65;;;;;;;;;;4966272;28;20090;-82
2022/04/10 07:12:13;;;;;;;5.13;1.88;;;;;;;;;;4982578;28;20725;-81
2022/04/10 07:14:41;;;;;;;6.68;1.67;;;;;;;;;;4955218;28;20082;-82
2022/04/10 07:17:07;;;;;;;9.25;1.70;;;;;;;;;;4961770;28;20039;-81
2022/04/10 07:19:33;;;;;;;5.40;1.58;;;;;;;;;;4962222;28;20059;-81
2022/04/10 07:24:46;;;;;;;6.03;1.52;;;;;;;;;;4981708;28;20089;-81
2022/04/10 07:27:12;;;;;;;7.43;1.52;;;;;;;;;;4967474;28;20051;-81
2022/04/10 07:29:39;;;;;;;6.60;1.50;;;;;;;;;;4983822;28;20043;-80
2022/04/10 07:32:13;;;;;;;4.15;1.30;;;;;;;;;;4967146;28;20055;-79
2022/04/10 07:34:40;;;;;;;4.63;1.52;;;;;;;;;;4986271;28;20065;-79
2022/04/10 07:37:06;;;;;;;6.82;1.45;;;;;;;;;;4966937;28;20047;-80
2022/04/10 07:39:33;;;;;;;6.70;1.50;;;;;;;;;;4966786;28;20059;-80
2022/04/10 07:41:59;;;;;;;3.65;1.10;;;;;;;;;;4966300;28;20108;-79
2022/04/10 07:44:45;;;;;;;7.32;1.48;;;;;;;;;;4979622;28;20048;-80
2022/04/10 07:47:27;;;;;;;4.32;1.25;;;;;;;;;;4964428;28;20093;-79
2022/04/10 07:49:54;;;;;;;7.80;1.25;;;;;;;;;;4966986;28;20285;-79
2022/04/10 07:52:21;;;;;;;12.98;1.88;;;;;;;;;;4965760;28;20047;-79
2022/04/10 07:54:48;;;;;;;7.68;1.40;;;;;;;;;;4966469;28;20422;-81
2022/04/10 07:57:16;;;;;;;5.88;1.13;;;;;;;;;;4982783;28;20066;-79
2022/04/10 07:59:43;;;;;;;4.07;1.23;;;;;;;;;;4965060;28;20092;-80
2022/04/10 08:02:09;;;;;;;5.90;1.30;;;;;;;;;;4966005;28;20059;-80
2022/04/10 08:04:36;;;;;;;4.03;1.40;;;;;;;;;;4960897;28;20170;-79
2022/04/10 08:07:02;;;;;;;10.80;1.95;;;;;;;;;;4959755;28;20055;-79
2022/04/10 08:09:32;;;;;;;7.00;1.33;;;;;;;;;;4964402;28;20055;-78
2022/04/10 08:11:59;;;;;;;4.20;1.15;;;;;;;;;;4958627;28;20055;-78
2022/04/10 08:14:25;;;;;;;5.50;1.27;;;;;;;;;;4958595;28;20067;-79
2022/04/10 08:16:51;;;;;;;5.95;1.35;;;;;;;;;;4965593;28;20309;-79
2022/04/10 08:19:18;;;;;;;5.18;1.42;;;;;;;;;;4962534;28;20069;-79
2022/04/10 08:21:44;;;;;;;7.30;1.20;;;;;;;;;;4961125;28;20126;-79
2022/04/10 08:24:11;;;;;;;4.90;1.45;;;;;;;;;;4959733;28;20039;-80
2022/04/10 08:26:37;;;;;;;4.65;1.20;;;;;;;;;;4960501;28;20055;-80
2022/04/10 08:29:03;;;;;;;4.95;1.13;;;;;;;;;;4962670;28;20110;-80
2022/04/10 08:31:30;;;;;;;8.23;1.50;;;;;;;;;;4979019;28;20055;-79
2022/04/10 08:33:56;;;;;;;4.15;1.40;;;;;;;;;;4958851;28;20072;-81
2022/04/10 08:36:22;;;;;;;6.68;1.00;;;;;;;;;;4974276;28;20086;-79
2022/04/10 08:38:49;;;;;;;5.07;1.30;;;;;;;;;;4961267;28;20059;-79
2022/04/10 08:41:15;;;;;;;4.78;1.40;;;;;;;;;;4957722;28;20048;-80
2022/04/10 08:43:42;;;;;;;7.40;1.30;;;;;;;;;;4962125;28;20039;-80
2022/04/10 08:46:10;;;;;;;7.80;1.08;;;;;;;;;;4959818;28;20954;-79
2022/04/10 08:48:37;;;;;;;7.05;1.13;;;;;;;;;;4959809;28;20047;-80
2022/04/10 08:51:08;;;;;;;6.78;1.40;;;;;;;;;;4961545;28;20051;-80
2022/04/10 08:53:36;;;;;;;8.35;1.88;;;;;;;;;;4978144;28;20083;-80
2022/04/10 08:56:04;;;;;;;8.10;1.60;;;;;;;;;;4976380;28;20055;-80
2022/04/10 08:58:31;;;;;;;8.23;1.45;;;;;;;;;;4954815;28;20114;-79
2022/04/10 09:00:58;;;;;;;5.22;1.05;;;;;;;;;;4962020;28;20111;-80
2022/04/10 09:03:25;;;;;;;6.70;1.60;;;;;;;;;;4956186;28;20899;-80
2022/04/10 09:06:05;;;;;;;7.15;1.25;;;;;;;;;;4961371;28;20107;-80
2022/04/10 09:08:32;;;;;;;8.35;1.23;;;;;;;;;;4959957;28;20114;-79
2022/04/10 09:11:09;;;;;;;7.32;1.80;;;;;;;;;;4961755;28;20138;-80
2022/04/10 09:13:39;;;;;;;7.05;1.98;;;;;;;;;;4957014;28;20047;-79
2022/04/10 09:16:10;;;;;;;3.65;1.45;;;;;;;;;;4961249;28;20047;-79
2022/04/10 09:18:36;;;;;;;;;;;;;;;;;;4961001;28;20519;-80
2022/04/10 09:21:07;;;;;;;4.82;1.45;;;;;;;;;;4959395;28;47235;-79
2022/04/10 09:23:34;;;;;;;6.22;1.75;;;;;;;;;;4961495;28;20106;-80
2022/04/10 09:26:00;;;;;;;5.95;1.60;;;;;;;;;;4961146;28;20055;-80
2022/04/10 09:28:43;;;;;;;5.13;1.27;;;;;;;;;;4965489;28;20062;-80
2022/04/10 09:31:29;;;;;;;4.70;1.00;;;;;;;;;;4976938;28;20039;-80
2022/04/10 09:33:56;;;;;;;7.43;1.27;;;;;;;;;;4973855;28;20067;-80
2022/04/10 09:36:29;;;;;;;5.18;1.08;;;;;;;;;;4960532;28;20078;-80
2022/04/10 09:38:55;;;;;;;4.70;1.20;;;;;;;;;;4951708;28;20114;-80
2022/04/10 09:41:22;;;;;;;3.95;1.00;;;;;;;;;;4959739;28;20138;-80
2022/04/10 09:43:48;;;;;;;6.57;1.30;;;;;;;;;;4956446;28;20055;-80
2022/04/10 09:46:15;;;;;;;5.75;1.30;;;;;;;;;;4957579;28;20095;-79
2022/04/10 09:48:41;;;;;;;9.32;2.30;;;;;;;;;;4954719;28;20126;-80
2022/04/10 09:51:09;;;;;;;4.97;1.48;;;;;;;;;;4953525;28;20527;-81
2022/04/10 09:53:36;;;;;;;7.10;1.65;;;;;;;;;;4970959;28;20126;-80
2022/04/10 09:56:05;;;;;;;8.43;2.03;;;;;;;;;;4963574;28;20612;-80
2022/04/10 09:58:32;;;;;;;6.30;1.40;;;;;;;;;;4953161;28;20593;-80
2022/04/10 10:00:59;;;;;;;5.70;1.20;;;;;;;;;;4970597;28;20095;-79
2022/04/10 10:03:36;;;;;;;5.63;1.20;;;;;;;;;;4960535;28;20103;-79
2022/04/10 10:06:05;;;;;;;3.58;1.10;;;;;;;;;;4953259;28;20133;-78
2022/04/10 10:08:32;;;;;;;9.00;3.30;;;;;;;;;;4953478;28;20533;-81
2022/04/10 10:11:03;;;;;;;5.00;1.52;;;;;;;;;;4953143;28;20055;-79
2022/04/10 10:13:30;;;;;;;5.82;1.38;;;;;;;;;;4969134;28;20069;-80
2022/04/10 10:15:56;;;;;;;4.20;1.13;;;;;;;;;;4969045;28;20060;-80
2022/04/10 10:18:24;;;;;;;7.60;1.38;;;;;;;;;;4948931;28;20150;-80
2022/04/10 10:20:51;;;;;;;5.53;1.67;;;;;;;;;;4953998;28;20853;-80
2022/04/10 10:23:19;;;;;;;6.88;1.55;;;;;;;;;;4946384;28;21205;-79
2022/04/10 10:26:24;;;;;;;5.45;1.50;;;;;;;;;;4952314;28;20075;-80
2022/04/10 10:29:09;;;;;;;3.83;0.95;;;;;;;;;;4892209;29;20192;-80
2022/04/10 10:31:43;;;;;;;3.78;0.80;;;;;;;;;;4911345;29;20057;-81
2022/04/10 10:34:10;;;;;;;3.78;0.88;;;;;;;;;;4948987;28;20106;-80
2022/04/10 10:36:36;;;;;;;5.85;1.30;;;;;;;;;;4969717;28;20063;-80
2022/04/10 10:39:04;;;;;;;5.40;0.90;;;;;;;;;;4952275;28;20102;-80
2022/04/10 10:41:34;;;;;;;5.68;0.90;;;;;;;;;;4952924;28;20103;-80
2022/04/10 10:44:18;;;;;;;5.47;1.30;;;;;;;;;;4970371;28;20086;-79
2022/04/10 10:46:58;;;;;;;5.35;1.05;;;;;;;;;;4952463;28;20590;-79
2022/04/10 10:49:26;;;;;;;5.97;1.15;;;;;;;;;;4953985;28;20063;-80
2022/04/10 10:51:55;;;;;;;8.02;1.10;;;;;;;;;;4953899;28;20051;-80
2022/04/10 10:54:25;;;;;;;3.40;0.80;;;;;;;;;;4953835;28;20070;-80
2022/04/10 10:56:51;;;;;;;5.03;1.48;;;;;;;;;;4950303;28;20055;-80
2022/04/10 10:59:27;;;;;;;3.92;1.00;;;;;;;;;;4952438;28;20138;-80
2022/04/10 11:01:55;;;;;;;6.40;2.20;;;;;;;;;;4971559;28;20043;-81
2022/04/10 11:04:23;;;;;;;7.45;2.60;;;;;;;;;;4951800;28;20032;-80
2022/04/10 11:06:50;;;;;;;4.68;1.10;;;;;;;;;;4953511;28;20047;-80
2022/04/10 11:09:21;;;;;;;7.40;2.50;;;;;;;;;;4951902;28;20150;-80
2022/04/10 11:11:47;;;;;;;;;;;;;;;;;;4949200;28;20083;-80
2022/04/10 11:14:38;;;;;;;5.85;1.38;;;;;;;;;;4954384;28;42183;-80
2022/04/10 11:17:08;;;;;;;4.38;1.08;;;;;;;;;;4962867;28;20059;-79
2022/04/10 11:19:35;;;;;;;3.72;0.85;;;;;;;;;;4956466;28;20143;-80
2022/04/10 11:22:02;;;;;;;7.78;1.10;;;;;;;;;;4973352;28;20055;-80
2022/04/10 11:24:29;;;;;;;4.78;1.00;;;;;;;;;;4973514;28;20159;-80
2022/04/10 11:26:55;;;;;;;6.50;1.70;;;;;;;;;;4956814;28;20051;-79
2022/04/10 11:29:24;;;;;;;5.05;1.17;;;;;;;;;;4956192;28;20087;-80
2022/04/10 11:31:54;;;;;;;4.60;0.95;;;;;;;;;;4972259;28;21947;-80
2022/04/10 11:34:20;;;;;;;4.38;0.75;;;;;;;;;;4966401;28;20043;-79
2022/04/10 11:36:47;;;;;;;6.38;1.13;;;;;;;;;;4970950;28;20048;-80
2022/04/10 11:39:13;;;;;;;4.72;1.17;;;;;;;;;;4969108;28;21165;-80
2022/04/10 11:41:43;;;;;;;4.10;0.80;;;;;;;;;;4974798;28;20067;-80
2022/04/10 11:44:09;;;;;;;5.47;1.08;;;;;;;;;;4956072;28;20082;-80
2022/04/10 11:46:36;;;;;;;5.43;1.15;;;;;;;;;;4971077;28;20051;-80
2022/04/10 11:49:03;;;;;;;2.83;0.90;;;;;;;;;;4973267;28;20159;-80
2022/04/10 11:51:29;;;;;;;4.63;0.88;;;;;;;;;;4973756;28;20774;-79
2022/04/10 11:53:59;;;;;;;4.85;1.25;;;;;;;;;;4973324;28;20138;-79
2022/04/10 11:56:25;;;;;;;4.18;0.98;;;;;;;;;;4975379;28;20082;-79
2022/04/10 11:58:52;;;;;;;3.53;1.02;;;;;;;;;;4975748;28;20079;-80
2022/04/10 12:01:18;;;;;;;3.40;0.90;;;;;;;;;;4961933;28;20093;-79
2022/04/10 12:03:46;;;;;;;7.18;0.98;;;;;;;;;;4974754;28;20089;-80
2022/04/10 12:06:20;;;;;;;5.28;0.90;;;;;;;;;;4971706;28;20079;-80
2022/04/10 12:08:48;;;;;;;4.60;0.95;;;;;;;;;;4958202;28;20055;-79
2022/04/10 12:11:14;;;;;;;4.18;1.10;;;;;;;;;;4975494;28;20193;-78
2022/04/10 12:13:41;;;;;;;4.75;0.98;;;;;;;;;;4964640;28;20063;-78
2022/04/10 12:16:16;;;;;;;5.65;1.02;;;;;;;;;;4955601;28;20248;-78
2022/04/10 12:22:11;;;;;;;4.25;0.90;;;;;;;;;;4968685;28;20122;-77
2022/04/10 12:24:44;;;;;;;4.95;0.80;;;;;;;;;;4951168;28;20437;-77
2022/04/10 12:27:15;;;;;;;4.60;1.10;;;;;;;;;;4944027;28;20119;-77
2022/04/10 12:29:41;;;;;;;4.78;1.33;;;;;;;;;;4967458;28;20079;-77
2022/04/10 12:32:10;;;;;;;2.28;0.77;;;;;;;;;;4967816;28;20130;-77
2022/04/10 12:34:42;;;;;;;4.65;1.00;;;;;;;;;;4951115;28;20090;-77
2022/04/10 12:37:12;;;;;;;2.78;0.90;;;;;;;;;;4959784;28;20083;-77
2022/04/10 12:39:40;;;;;;;3.90;0.90;;;;;;;;;;4951239;28;20118;-78
2022/04/10 12:42:07;;;;;;;3.00;0.80;;;;;;;;;;4951248;28;20118;-77
2022/04/10 12:44:34;;;;;;;3.67;0.80;;;;;;;;;;4948990;28;20061;-78
2022/04/10 12:47:01;;;;;;;4.82;0.70;;;;;;;;;;4965157;28;20083;-77
2022/04/10 12:49:27;;;;;;;5.50;0.80;;;;;;;;;;4950446;28;20134;-77
2022/04/10 12:51:59;;;;;;;2.53;0.70;;;;;;;;;;4967595;28;20624;-77
2022/04/10 12:54:38;;;;;;;2.05;0.60;;;;;;;;;;4949425;28;20055;-77
2022/04/10 12:57:05;;;;;;;5.75;1.17;;;;;;;;;;4951493;28;20142;-79
2022/04/10 12:59:38;;;;;;;1.83;0.50;;;;;;;;;;4972142;28;20592;-80
2022/04/10 13:02:08;;;;;;;2.78;0.60;;;;;;;;;;4971579;28;20138;-80
2022/04/10 13:04:35;;;;;;;4.60;1.05;;;;;;;;;;4951837;28;20087;-80
2022/04/10 13:07:14;;;;;;;8.27;1.17;;;;;;;;;;4972160;28;20102;-80
2022/04/10 13:09:40;;;;;;;3.40;0.80;;;;;;;;;;4955768;28;20055;-80
2022/04/10 13:12:07;;;;;;;2.95;0.60;;;;;;;;;;4972677;28;20142;-79
2022/04/10 13:14:33;;;;;;;3.80;0.73;;;;;;;;;;4955332;28;20071;-80
2022/04/10 13:17:04;;;;;;;3.05;0.70;;;;;;;;;;4954460;28;20082;-80
2022/04/10 13:19:32;;;;;;;2.33;0.70;;;;;;;;;;4954839;28;20051;-79
2022/04/10 13:21:58;;;;;;;3.85;0.80;;;;;;;;;;4955646;28;20046;-80
2022/04/10 13:24:28;;;;;;;4.10;0.85;;;;;;;;;;4971076;28;20887;-79
2022/04/10 13:27:04;;;;;;;;;;;;;;;;;;4955125;28;20442;-79
2022/04/10 13:29:58;;;;;;;4.35;0.80;;;;;;;;;;4954100;28;41876;-79
2022/04/10 13:32:39;;;;;;;3.88;0.80;;;;;;;;;;4910837;29;20056;-79
2022/04/10 13:35:08;;;;;;;4.15;0.80;;;;;;;;;;4912203;29;20088;-79
2022/04/10 13:38:06;;;;;;;4.35;0.85;;;;;;;;;;4910147;29;20140;-80
2022/04/10 13:40:32;;;;;;;4.22;0.70;;;;;;;;;;4907650;29;20089;-79
2022/04/10 13:43:01;;;;;;;3.80;0.85;;;;;;;;;;4908152;29;20064;-79
2022/04/10 13:45:27;;;;;;;3.70;0.90;;;;;;;;;;4910649;29;20564;-79
2022/04/10 13:48:00;;;;;;;3.72;1.38;;;;;;;;;;4912538;29;20061;-79
2022/04/10 13:50:27;;;;;;;4.88;1.40;;;;;;;;;;4916379;29;20084;-79
2022/04/10 13:52:53;;;;;;;4.85;1.00;;;;;;;;;;4895612;29;20131;-78
2022/04/10 13:55:19;;;;;;;6.07;0.95;;;;;;;;;;4914287;29;20980;-79
2022/04/10 13:57:45;;;;;;;6.15;0.90;;;;;;;;;;4911875;29;20168;-80
2022/04/10 14:00:15;;;;;;;4.05;1.10;;;;;;;;;;4897037;29;20053;-79
2022/04/10 14:02:41;;;;;;;6.03;1.73;;;;;;;;;;4921644;28;20063;-79
2022/04/10 14:05:08;;;;;;;7.63;1.95;;;;;;;;;;4955367;28;20083;-79
2022/04/10 14:07:34;;;;;;;5.38;1.20;;;;;;;;;;4952293;28;20087;-79
2022/04/10 14:10:01;;;;;;;4.93;0.88;;;;;;;;;;4936187;28;20862;-79
2022/04/10 14:12:28;;;;;;;4.78;0.90;;;;;;;;;;4942503;28;20047;-79
2022/04/10 14:14:54;;;;;;;4.80;0.93;;;;;;;;;;4970930;28;20043;-79
2022/04/10 14:17:21;;;;;;;4.55;0.90;;;;;;;;;;4970859;28;21052;-78
2022/04/10 14:19:47;;;;;;;4.40;0.93;;;;;;;;;;4972362;28;20506;-79
2022/04/10 14:22:13;;;;;;;6.15;1.00;;;;;;;;;;4955057;28;20126;-78
2022/04/10 14:24:40;;;;;;;4.78;0.98;;;;;;;;;;4969694;28;20055;-79
2022/04/10 14:27:06;;;;;;;3.78;1.30;;;;;;;;;;4971268;28;20059;-78
2022/04/10 14:29:35;;;;;;;3.38;0.90;;;;;;;;;;4953658;28;20127;-79
2022/04/10 14:32:03;;;;;;;4.68;0.90;;;;;;;;;;4971548;28;20079;-79
2022/04/10 14:34:31;;;;;;;3.38;0.93;;;;;;;;;;4954251;28;20051;-79
2022/04/10 14:36:57;;;;;;;3.60;0.93;;;;;;;;;;4954024;28;20110;-80
2022/04/10 14:39:24;;;;;;;5.32;1.00;;;;;;;;;;4970764;28;20086;-79
2022/04/10 14:41:50;;;;;;;5.80;0.90;;;;;;;;;;4954473;28;20560;-80
2022/04/10 14:44:16;;;;;;;5.00;1.00;;;;;;;;;;4953113;28;20142;-79
2022/04/10 14:46:45;;;;;;;5.13;1.00;;;;;;;;;;4952009;28;20087;-79
2022/04/10 14:49:12;;;;;;;3.47;1.02;;;;;;;;;;4953735;28;20086;-80
2022/04/10 14:51:39;;;;;;;3.35;0.80;;;;;;;;;;4972102;28;20110;-80
2022/04/10 14:54:05;;;;;;;4.60;1.10;;;;;;;;;;4974624;28;20911;-80